Time,TemperatureF,DewpointF,PressureIn,WindDirection,WindDirectionDegrees,WindSpeedMPH,WindSpeedGustMPH,Humidity,HourlyPrecipIn,Conditions,Clouds,dailyrainin,SolarRadiationWatts/m^2,SoftwareType,DateUTC
2013-01-06 00:00:00,61.2,57.3,30.23,NE,52,3.0,4.0,87,0.00,,OVC065,0.00,0.00,VWS V14.01,2013-01-06 05:00:00,
2013-01-06 00:01:00,61.2,57.3,30.23,NE,40,1.0,4.0,87,0.00,,OVC065,0.00,0.00,VWS V14.01,2013-01-06 05:01:00,
2013-01-06 00:02:00,61.2,57.3,30.23,NE,36,1.0,3.0,87,0.00,,OVC065,0.00,0.00,VWS V14.01,2013-01-06 05:02:00,
2013-01-06 00:05:00,61.1,57.2,30.23,NNE,28,2.0,3.0,87,0.00,,OVC065,0.00,0.00,VWS V14.01,2013-01-06 05:05:00,
2013-01-06 00:11:00,61.1,57.2,30.22,North,9,2.0,3.0,87,0.00,,OVC065,0.00,0.00,VWS V14.01,2013-01-06 05:11:00,
2013-01-06 00:16:00,61.1,57.2,30.22,NE,35,3.0,3.0,87,0.00,,OVC065,0.00,0.00,VWS V14.01,2013-01-06 05:16:00,
2013-01-06 00:21:00,61.1,57.2,30.22,NE,47,1.0,3.0,87,0.00,,OVC075,0.00,0.00,VWS V14.01,2013-01-06 05:21:00,
2013-01-06 00:26:00,61.1,57.2,30.22,NE,39,2.0,4.0,87,0.00,,OVC075,0.00,0.00,VWS V14.01,2013-01-06 05:26:00,
2013-01-06 00:30:00,60.5,56.6,30.19,North,9,1.0,7.0,87,0.00,,,0.00,0.00,VWS V15.00,2013-01-06 05:30:00,
2013-01-06 00:31:00,61.0,57.1,30.21,NE,51,2.0,4.0,87,0.00,,OVC075,0.00,0.00,VWS V14.01,2013-01-06 05:31:00,
2013-01-06 00:36:00,61.0,57.1,30.21,NNE,32,5.0,6.0,87,0.00,,OVC075,0.00,0.00,VWS V14.01,2013-01-06 05:36:00,
2013-01-06 00:41:00,60.9,57.0,30.20,NE,36,3.0,6.0,87,0.00,,OVC075,0.00,0.00,VWS V14.01,2013-01-06 05:41:00,
2013-01-06 00:46:00,60.9,57.0,30.20,NE,45,4.0,6.0,87,0.00,,OVC075,0.00,0.00,VWS V14.01,2013-01-06 05:46:00,
2013-01-06 00:51:00,60.8,56.9,30.20,ENE,59,3.0,6.0,87,0.00,,OVC075,0.00,0.00,VWS V14.01,2013-01-06 05:51:00,
2013-01-06 00:56:00,60.7,56.8,30.20,NE,53,2.0,6.0,87,0.00,,OVC075,0.00,0.00,VWS V14.01,2013-01-06 05:56:00,
2013-01-06 01:00:00,60.4,56.5,30.19,NE,34,5.0,6.0,87,0.00,,,0.00,0.00,VWS V15.00,2013-01-06 06:00:00,
2013-01-06 01:01:00,60.7,56.8,30.20,NNE,28,1.0,1.0,87,0.00,,OVC075,0.00,0.00,VWS V14.01,2013-01-06 06:01:00,
2013-01-06 01:06:00,60.6,56.7,30.20,NE,46,3.0,4.0,87,0.00,,OVC075,0.00,0.00,VWS V14.01,2013-01-06 06:06:00,
2013-01-06 01:11:00,60.6,56.7,30.20,NNE,22,3.0,5.0,87,0.00,,OVC075,0.00,0.00,VWS V14.01,2013-01-06 06:11:00,
2013-01-06 01:16:00,60.5,56.6,30.20,NE,38,0.0,5.0,87,0.00,,OVC075,0.00,0.00,VWS V14.01,2013-01-06 06:16:00,
2013-01-06 01:21:00,60.4,56.5,30.20,NE,39,4.0,7.0,87,0.00,,OVC034,0.00,0.00,VWS V14.01,2013-01-06 06:21:00,
2013-01-06 01:26:00,60.5,56.6,30.20,NNE,19,3.0,7.0,87,0.00,,OVC034,0.00,0.00,VWS V14.01,2013-01-06 06:26:00,
2013-01-06 01:30:00,60.2,56.6,30.19,North,355,2.0,6.0,88,0.00,,,0.00,0.00,VWS V15.00,2013-01-06 06:30:00,
2013-01-06 01:31:00,60.5,56.6,30.19,North,9,1.0,1.0,87,0.00,,OVC034,0.00,0.00,VWS V14.01,2013-01-06 06:31:00,
2013-01-06 01:36:00,60.5,56.6,30.19,North,360,1.0,4.0,87,0.00,,OVC034,0.00,0.00,VWS V14.01,2013-01-06 06:36:00,
2013-01-06 01:41:00,60.4,56.5,30.19,NNE,20,4.0,5.0,87,0.00,,OVC034,0.00,0.00,VWS V14.01,2013-01-06 06:41:00,
2013-01-06 01:46:00,60.4,56.5,30.19,NNE,33,3.0,6.0,87,0.00,,OVC034,0.00,0.00,VWS V14.01,2013-01-06 06:46:00,
2013-01-06 01:51:00,60.4,56.5,30.19,NNE,22,4.0,6.0,87,0.00,,OVC034,0.00,0.00,VWS V14.01,2013-01-06 06:51:00,
2013-01-06 01:56:00,60.4,56.5,30.19,NNE,31,4.0,6.0,87,0.00,,OVC034,0.00,0.00,VWS V14.01,2013-01-06 06:56:00,
2013-01-06 02:01:00,60.3,56.4,30.19,NNE,21,4.0,5.0,87,0.00,,OVC034,0.00,0.00,VWS V14.01,2013-01-06 07:01:00,
2013-01-06 02:06:00,60.3,56.4,30.18,NNE,26,5.0,6.0,87,0.00,,OVC034,0.00,0.00,VWS V14.01,2013-01-06 07:06:00,
2013-01-06 02:11:00,60.3,56.4,30.19,NNE,22,4.0,6.0,87,0.00,,OVC034,0.00,0.00,VWS V14.01,2013-01-06 07:11:00,
2013-01-06 02:16:00,60.2,56.3,30.19,NNE,16,3.0,6.0,87,0.00,,OVC034,0.00,0.00,VWS V14.01,2013-01-06 07:16:00,
2013-01-06 02:21:00,60.2,56.3,30.19,NNE,22,2.0,6.0,87,0.00,,OVC034,0.00,0.00,VWS V14.01,2013-01-06 07:21:00,
2013-01-06 02:26:00,60.2,56.6,30.19,North,360,2.0,6.0,88,0.00,,OVC034,0.00,0.00,VWS V14.01,2013-01-06 07:26:00,
2013-01-06 02:31:00,60.2,56.6,30.18,NE,41,5.0,5.0,88,0.00,,OVC034,0.00,0.00,VWS V14.01,2013-01-06 07:31:00,
2013-01-06 02:36:00,60.2,56.6,30.19,NE,41,2.0,6.0,88,0.00,,OVC034,0.00,0.00,VWS V14.01,2013-01-06 07:36:00,
2013-01-06 02:41:00,60.2,56.6,30.19,NE,34,0.0,6.0,88,0.00,,OVC034,0.00,0.00,VWS V14.01,2013-01-06 07:41:00,
2013-01-06 02:46:00,60.1,56.5,30.19,North,360,3.0,6.0,88,0.00,,OVC034,0.00,0.00,VWS V14.01,2013-01-06 07:46:00,
2013-01-06 02:51:00,60.0,56.4,30.18,North,355,0.0,6.0,88,0.00,,OVC034,0.00,0.00,VWS V14.01,2013-01-06 07:51:00,
2013-01-06 02:56:00,59.9,56.3,30.18,North,11,1.0,6.0,88,0.00,,OVC034,0.00,0.00,VWS V14.01,2013-01-06 07:56:00,
2013-01-06 03:01:00,59.9,56.3,30.18,North,11,2.0,3.0,88,0.00,,BKN034,0.00,0.00,VWS V14.01,2013-01-06 08:01:00,
2013-01-06 03:06:00,59.8,56.2,30.18,NNE,16,2.0,3.0,88,0.00,,BKN034,0.00,0.00,VWS V14.01,2013-01-06 08:06:00,
2013-01-06 03:11:00,59.8,56.6,30.18,NNE,31,3.0,4.0,89,0.00,,BKN034,0.00,0.00,VWS V14.01,2013-01-06 08:11:00,
2013-01-06 03:16:00,59.6,56.4,30.17,NNE,24,2.0,4.0,89,0.00,,BKN034,0.00,0.00,VWS V14.01,2013-01-06 08:16:00,
2013-01-06 03:21:00,59.6,56.4,30.17,NNE,29,1.0,4.0,89,0.00,,BKN090,0.00,0.00,VWS V14.01,2013-01-06 08:21:00,
2013-01-06 03:26:00,59.4,56.2,30.17,NE,43,0.0,4.0,89,0.00,,BKN090,0.00,0.00,VWS V14.01,2013-01-06 08:26:00,
2013-01-06 03:31:00,59.2,56.0,30.17,NE,51,4.0,4.0,89,0.00,,BKN090,0.00,0.00,VWS V14.01,2013-01-06 08:31:00,
2013-01-06 03:37:00,59.0,56.1,30.16,NE,50,1.0,5.0,90,0.00,,BKN090,0.00,0.00,VWS V14.01,2013-01-06 08:37:00,
2013-01-06 03:42:00,58.8,55.9,30.16,NE,38,2.0,5.0,90,0.00,,OVC034,0.00,0.00,VWS V14.01,2013-01-06 08:42:00,
2013-01-06 03:47:00,58.7,55.8,30.17,NE,45,0.0,5.0,90,0.00,,OVC034,0.00,0.00,VWS V14.01,2013-01-06 08:47:00,
2013-01-06 03:52:00,58.7,55.8,30.16,NE,48,0.0,5.0,90,0.00,,OVC034,0.00,0.00,VWS V14.01,2013-01-06 08:52:00,
2013-01-06 03:57:00,58.6,55.7,30.16,ENE,59,0.0,5.0,90,0.00,,OVC034,0.00,0.00,VWS V14.01,2013-01-06 08:57:00,
2013-01-06 04:02:00,58.5,55.9,30.16,NE,45,2.0,3.0,91,0.00,,BKN036,0.00,0.00,VWS V14.01,2013-01-06 09:02:00,
2013-01-06 04:07:00,58.4,55.8,30.16,NE,45,0.0,3.0,91,0.00,,BKN036,0.00,0.00,VWS V14.01,2013-01-06 09:07:00,
2013-01-06 04:12:00,58.2,55.6,30.16,NE,45,0.0,3.0,91,0.00,,BKN036,0.00,0.00,VWS V14.01,2013-01-06 09:12:00,
2013-01-06 04:17:00,58.0,55.4,30.16,NE,45,0.0,3.0,91,0.00,,BKN036,0.00,0.00,VWS V14.01,2013-01-06 09:17:00,
2013-01-06 04:22:00,57.8,55.5,30.16,NE,45,0.0,3.0,92,0.00,,FEW016,0.00,0.00,VWS V14.01,2013-01-06 09:22:00,
2013-01-06 04:27:00,57.8,55.5,30.17,NE,45,0.0,3.0,92,0.00,,FEW016,0.00,0.00,VWS V14.01,2013-01-06 09:27:00,
2013-01-06 04:30:00,57.4,55.1,30.14,East,86,5.0,5.0,92,0.00,,,0.00,0.00,VWS V15.00,2013-01-06 09:30:00,
2013-01-06 04:32:00,57.9,55.6,30.16,NNE,30,1.0,2.0,92,0.00,,FEW016,0.00,0.00,VWS V14.01,2013-01-06 09:32:00,
2013-01-06 04:37:00,58.1,55.8,30.16,NNE,30,0.0,2.0,92,0.00,,FEW016,0.00,0.00,VWS V14.01,2013-01-06 09:37:00,
2013-01-06 04:42:00,58.3,56.0,30.16,NNE,32,0.0,2.0,92,0.00,,FEW016,0.00,0.00,VWS V14.01,2013-01-06 09:42:00,
2013-01-06 04:47:00,58.3,56.0,30.15,ENE,75,0.0,2.0,92,0.00,,FEW016,0.00,0.00,VWS V14.01,2013-01-06 09:47:00,
2013-01-06 04:52:00,58.2,55.9,30.15,NE,44,1.0,2.0,92,0.00,,FEW016,0.00,0.00,VWS V14.01,2013-01-06 09:52:00,
2013-01-06 04:57:00,58.2,55.9,30.15,NE,49,2.0,3.0,92,0.00,,FEW016,0.00,0.00,VWS V14.01,2013-01-06 09:57:00,
2013-01-06 05:00:00,57.1,55.1,30.14,ENE,76,2.0,6.0,93,0.00,,,0.00,0.00,VWS V15.00,2013-01-06 10:00:00,
2013-01-06 05:02:00,58.2,55.9,30.15,NE,47,2.0,2.0,92,0.00,,CLR,0.00,0.00,VWS V14.01,2013-01-06 10:02:00,
2013-01-06 05:07:00,58.1,55.8,30.15,NE,40,1.0,3.0,92,0.00,,CLR,0.00,0.00,VWS V14.01,2013-01-06 10:07:00,
2013-01-06 05:12:00,57.9,55.6,30.14,ENE,73,3.0,3.0,92,0.00,,CLR,0.00,0.00,VWS V14.01,2013-01-06 10:12:00,
2013-01-06 05:17:00,57.8,55.5,30.14,ENE,78,2.0,5.0,92,0.00,,CLR,0.00,0.00,VWS V14.01,2013-01-06 10:17:00,
2013-01-06 05:22:00,57.6,55.3,30.14,ENE,76,1.0,5.0,92,0.00,,CLR,0.00,0.00,VWS V14.01,2013-01-06 10:22:00,
2013-01-06 05:27:00,57.5,55.2,30.14,ESE,105,3.0,5.0,92,0.00,,CLR,0.00,0.00,VWS V14.01,2013-01-06 10:27:00,
2013-01-06 05:30:00,57.1,55.1,30.15,NNW,344,1.0,4.0,93,0.00,,,0.00,0.00,VWS V15.00,2013-01-06 10:30:00,
2013-01-06 05:32:00,57.4,55.1,30.14,East,85,3.0,5.0,92,0.00,,CLR,0.00,0.00,VWS V14.01,2013-01-06 10:32:00,
2013-01-06 05:37:00,57.4,55.1,30.14,ENE,76,1.0,6.0,92,0.00,,SCT012,0.00,0.00,VWS V14.01,2013-01-06 10:37:00,
2013-01-06 05:42:00,57.3,55.0,30.15,East,82,0.0,6.0,92,0.00,,SCT012,0.00,0.00,VWS V14.01,2013-01-06 10:42:00,
2013-01-06 05:47:00,57.3,55.0,30.14,East,84,3.0,6.0,92,0.00,,SCT012,0.00,0.00,VWS V14.01,2013-01-06 10:47:00,
2013-01-06 05:52:00,57.2,55.2,30.14,East,82,2.0,6.0,93,0.00,,SCT012,0.00,0.00,VWS V14.01,2013-01-06 10:52:00,
2013-01-06 05:57:00,57.1,55.1,30.14,East,88,2.0,6.0,93,0.00,,SCT012,0.00,0.00,VWS V14.01,2013-01-06 10:57:00,
2013-01-06 06:00:00,57.5,55.5,30.15,NNE,14,2.0,3.0,93,0.00,,,0.00,0.00,VWS V15.00,2013-01-06 11:00:00,
2013-01-06 06:02:00,57.1,55.1,30.14,East,79,0.0,2.0,93,0.00,,FEW012,0.00,0.00,VWS V14.01,2013-01-06 11:02:00,
2013-01-06 06:07:00,57.1,55.1,30.14,NNE,23,2.0,3.0,93,0.00,,FEW012,0.00,0.00,VWS V14.01,2013-01-06 11:07:00,
2013-01-06 06:12:00,57.0,55.0,30.15,North,360,2.0,3.0,93,0.00,,FEW012,0.00,0.00,VWS V14.01,2013-01-06 11:12:00,
2013-01-06 06:17:00,56.9,54.9,30.15,NW,317,3.0,4.0,93,0.00,,CLR,0.00,0.00,VWS V14.01,2013-01-06 11:17:00,
2013-01-06 06:22:00,57.0,55.0,30.15,NNW,334,2.0,4.0,93,0.00,,CLR,0.00,0.00,VWS V14.01,2013-01-06 11:22:00,
2013-01-06 06:27:00,57.1,55.1,30.15,NNW,344,0.0,4.0,93,0.00,,CLR,0.00,0.00,VWS V14.01,2013-01-06 11:27:00,
2013-01-06 06:30:00,57.9,55.9,30.16,North,9,1.0,4.0,93,0.00,,,0.00,11.00,VWS V15.00,2013-01-06 11:30:00,
2013-01-06 06:32:00,57.1,55.1,30.15,NNW,344,1.0,2.0,93,0.00,,CLR,0.00,0.00,VWS V14.01,2013-01-06 11:32:00,
2013-01-06 06:37:00,57.3,55.3,30.15,North,355,0.0,3.0,93,0.00,,BKN016,0.00,0.00,VWS V14.01,2013-01-06 11:37:00,
2013-01-06 06:42:00,57.3,55.3,30.15,ENE,71,0.0,3.0,93,0.00,,BKN016,0.00,0.00,VWS V14.01,2013-01-06 11:42:00,
2013-01-06 06:47:00,57.3,55.3,30.15,ENE,69,2.0,3.0,93,0.00,,BKN016,0.00,0.00,VWS V14.01,2013-01-06 11:47:00,
2013-01-06 06:52:00,57.4,55.4,30.15,NNE,18,3.0,3.0,93,0.00,,BKN016,0.00,0.00,VWS V14.01,2013-01-06 11:52:00,
2013-01-06 06:57:00,57.5,55.5,30.15,NNE,19,2.0,3.0,93,0.00,,BKN016,0.00,0.00,VWS V14.01,2013-01-06 11:57:00,
2013-01-06 07:02:00,57.5,55.5,30.15,North,9,2.0,3.0,93,0.00,,BKN016,0.00,0.00,VWS V14.01,2013-01-06 12:02:00,
2013-01-06 07:07:00,57.5,55.5,30.15,North,5,2.0,3.0,93,0.00,,BKN016,0.00,0.00,VWS V14.01,2013-01-06 12:07:00,
2013-01-06 07:12:00,57.6,55.6,30.16,NNW,341,3.0,4.0,93,0.00,,BKN016,0.00,0.00,VWS V14.01,2013-01-06 12:12:00,
2013-01-06 07:17:00,57.6,55.6,30.16,North,11,2.0,4.0,93,0.00,,BKN016,0.00,0.00,VWS V14.01,2013-01-06 12:17:00,
2013-01-06 07:22:00,57.7,55.7,30.16,North,10,3.0,4.0,93,0.00,,BKN016,0.00,0.00,VWS V14.01,2013-01-06 12:22:00,
2013-01-06 07:27:00,57.8,55.8,30.16,North,9,3.0,4.0,93,0.00,,BKN016,0.00,7.00,VWS V14.01,2013-01-06 12:27:00,
2013-01-06 07:30:00,58.9,56.9,30.16,East,99,3.0,7.0,93,0.00,,,0.00,39.00,VWS V15.00,2013-01-06 12:30:00,
2013-01-06 07:32:00,57.9,55.6,30.16,North,9,2.0,2.0,92,0.00,,BKN016,0.00,12.00,VWS V14.01,2013-01-06 12:32:00,
2013-01-06 07:37:00,58.0,55.7,30.16,NNE,19,3.0,3.0,92,0.00,,BKN016,0.00,16.00,VWS V14.01,2013-01-06 12:37:00,
2013-01-06 07:42:00,58.1,55.8,30.16,NNE,26,3.0,3.0,92,0.00,,BKN016,0.00,19.00,VWS V14.01,2013-01-06 12:42:00,
2013-01-06 07:47:00,58.3,56.0,30.16,NNE,22,1.0,4.0,92,0.00,,BKN016,0.00,19.00,VWS V14.01,2013-01-06 12:47:00,
2013-01-06 08:00:00,59.3,57.3,30.17,ESE,111,1.0,5.0,93,0.00,,,0.00,114.00,VWS V15.00,2013-01-06 13:00:00,
2013-01-06 08:06:00,58.3,56.0,30.16,NNE,22,1.0,4.0,92,0.00,,SCT020,0.00,19.00,VWS V14.01,2013-01-06 13:06:00,
2013-01-06 08:11:00,58.6,56.3,30.16,East,80,3.0,6.0,92,0.00,,SCT020,0.00,42.00,VWS V14.01,2013-01-06 13:11:00,
2013-01-06 08:16:00,58.7,56.4,30.17,ESE,108,4.0,7.0,92,0.00,,SCT020,0.00,37.00,VWS V14.01,2013-01-06 13:16:00,
2013-01-06 08:21:00,58.8,56.5,30.17,East,94,3.0,7.0,92,0.00,,SCT020,0.00,35.00,VWS V14.01,2013-01-06 13:21:00,
2013-01-06 08:27:00,58.8,56.5,30.16,East,85,6.0,7.0,92,0.00,,SCT020,0.00,32.00,VWS V14.01,2013-01-06 13:27:00,
2013-01-06 08:32:00,58.9,56.9,30.16,ESE,115,2.0,3.0,93,0.00,,BKN006,0.00,30.00,VWS V14.01,2013-01-06 13:32:00,
2013-01-06 08:37:00,58.8,56.8,30.17,ESE,105,4.0,5.0,93,0.00,,BKN006,0.00,21.00,VWS V14.01,2013-01-06 13:37:00,
2013-01-06 08:42:00,58.8,56.8,30.17,ESE,114,2.0,5.0,93,0.00,,BKN006,0.00,23.00,VWS V14.01,2013-01-06 13:42:00,
2013-01-06 08:47:00,58.9,56.9,30.17,ESE,113,0.0,5.0,93,0.00,,BKN006,0.00,28.00,VWS V14.01,2013-01-06 13:47:00,
2013-01-06 08:52:00,58.9,56.6,30.17,ESE,115,1.0,5.0,92,0.00,,BKN006,0.00,33.00,VWS V14.01,2013-01-06 13:52:00,
2013-01-06 08:57:00,59.1,57.1,30.17,ESE,117,2.0,5.0,93,0.00,,BKN006,0.00,70.00,VWS V14.01,2013-01-06 13:57:00,
2013-01-06 09:02:00,59.4,57.4,30.17,ESE,111,1.0,2.0,93,0.00,,OVC006,0.00,83.00,VWS V14.01,2013-01-06 14:02:00,
2013-01-06 09:07:00,59.6,57.6,30.17,ESE,107,1.0,3.0,93,0.00,,OVC006,0.00,125.00,VWS V14.01,2013-01-06 14:07:00,
2013-01-06 09:30:00,60.6,58.9,30.18,ESE,106,2.0,3.0,94,0.00,,OVC006,0.00,207.00,VWS V14.01,2013-01-06 14:30:00,
2013-01-06 09:35:00,60.7,59.0,30.18,East,93,3.0,3.0,94,0.00,,OVC006,0.00,197.00,VWS V14.01,2013-01-06 14:35:00,
2013-01-06 09:40:00,60.8,59.1,30.18,East,80,3.0,5.0,94,0.00,,OVC006,0.00,200.00,VWS V14.01,2013-01-06 14:40:00,
2013-01-06 09:45:00,61.2,59.5,30.18,NNE,24,1.0,5.0,94,0.00,,OVC006,0.00,186.00,VWS V14.01,2013-01-06 14:45:00,
2013-01-06 09:50:00,61.3,59.6,30.19,NNE,13,1.0,5.0,94,0.00,,OVC006,0.00,178.00,VWS V14.01,2013-01-06 14:50:00,
2013-01-06 09:55:00,61.5,59.8,30.19,East,81,0.0,5.0,94,0.00,,OVC006,0.00,209.00,VWS V14.01,2013-01-06 14:55:00,
2013-01-06 10:00:00,61.9,59.9,30.19,NE,44,3.0,5.0,93,0.00,,OVC006,0.00,229.00,VWS V14.01,2013-01-06 15:00:00,
2013-01-06 10:05:00,62.1,60.1,30.18,East,80,2.0,3.0,93,0.00,,OVC006,0.00,86.00,VWS V14.01,2013-01-06 15:05:00,
2013-01-06 10:10:00,62.2,59.8,30.18,ESE,106,2.0,3.0,92,0.00,,OVC006,0.00,297.00,VWS V14.01,2013-01-06 15:10:00,
2013-01-06 10:15:00,62.8,60.8,30.18,SE,142,2.0,6.0,93,0.00,,OVC006,0.00,355.00,VWS V14.01,2013-01-06 15:15:00,
2013-01-06 10:20:00,63.2,60.8,30.18,SE,135,3.0,6.0,92,0.00,,OVC006,0.00,288.00,VWS V14.01,2013-01-06 15:20:00,
2013-01-06 10:25:00,63.5,61.1,30.18,SE,138,4.0,6.0,92,0.00,,OVC006,0.00,265.00,VWS V14.01,2013-01-06 15:25:00,
2013-01-06 10:30:00,63.5,61.1,30.18,SSW,196,3.0,6.0,92,0.00,,OVC006,0.00,299.00,VWS V14.01,2013-01-06 15:30:00,
2013-01-06 10:35:00,64.6,62.5,30.18,SSW,198,0.0,2.0,93,0.00,,OVC006,0.00,283.00,VWS V14.01,2013-01-06 15:35:00,
2013-01-06 10:40:00,64.3,61.6,30.18,ESE,103,3.0,4.0,91,0.00,,OVC006,0.00,276.00,VWS V14.01,2013-01-06 15:40:00,
2013-01-06 10:46:00,63.8,61.4,30.17,East,90,2.0,5.0,92,0.00,,OVC006,0.00,274.00,VWS V14.01,2013-01-06 15:46:00,
2013-01-06 10:51:00,64.0,61.6,30.17,East,86,3.0,5.0,92,0.00,,OVC006,0.00,294.00,VWS V14.01,2013-01-06 15:51:00,
2013-01-06 10:56:00,64.1,61.7,30.17,ESE,105,0.0,5.0,92,0.00,,OVC006,0.00,346.00,VWS V14.01,2013-01-06 15:56:00,
2013-01-06 11:00:00,70.2,65.1,30.14,SSW,201,3.0,6.0,84,0.00,,,0.00,468.00,VWS V15.00,2013-01-06 16:00:00,
2013-01-06 11:01:00,65.0,62.6,30.17,NNW,348,0.0,5.0,92,0.00,,OVC006,0.00,367.00,VWS V14.01,2013-01-06 16:01:00,
2013-01-06 11:06:00,66.0,63.0,30.17,ESE,107,4.0,5.0,90,0.00,,OVC007,0.00,478.00,VWS V14.01,2013-01-06 16:06:00,
2013-01-06 11:11:00,66.5,63.2,30.17,SE,128,3.0,5.0,89,0.00,,OVC007,0.00,606.00,VWS V14.01,2013-01-06 16:11:00,
2013-01-06 11:16:00,66.7,63.4,30.16,South,174,0.0,5.0,89,0.00,,OVC007,0.00,411.00,VWS V14.01,2013-01-06 16:16:00,
2013-01-06 11:21:00,67.0,63.7,30.16,East,83,0.0,5.0,89,0.00,,OVC007,0.00,540.00,VWS V14.01,2013-01-06 16:21:00,
2013-01-06 11:26:00,68.0,64.0,30.16,SSE,157,0.0,5.0,87,0.00,,OVC007,0.00,529.00,VWS V14.01,2013-01-06 16:26:00,
2013-01-06 11:30:00,73.0,66.5,30.13,ESE,117,2.0,5.0,80,0.00,,,0.00,515.00,VWS V15.00,2013-01-06 16:30:00,
2013-01-06 11:31:00,68.7,64.3,30.15,SSE,158,3.0,5.0,86,0.00,,OVC007,0.00,515.00,VWS V14.01,2013-01-06 16:31:00,
2013-01-06 11:36:00,69.0,64.3,30.15,South,185,2.0,5.0,85,0.00,,OVC007,0.00,534.00,VWS V14.01,2013-01-06 16:36:00,
2013-01-06 11:41:00,68.8,64.1,30.15,SSW,198,0.0,5.0,85,0.00,,OVC007,0.00,399.00,VWS V14.01,2013-01-06 16:41:00,
2013-01-06 11:46:00,69.0,64.3,30.15,WSW,252,0.0,5.0,85,0.00,,OVC007,0.00,281.00,VWS V14.01,2013-01-06 16:46:00,
2013-01-06 11:51:00,69.7,65.0,30.15,SSW,205,3.0,5.0,85,0.00,,OVC007,0.00,278.00,VWS V14.01,2013-01-06 16:51:00,
2013-01-06 11:56:00,69.6,64.6,30.15,WSW,244,2.0,6.0,84,0.00,,OVC007,0.00,336.00,VWS V14.01,2013-01-06 16:56:00,
2013-01-06 12:01:00,70.2,65.1,30.14,SSW,201,3.0,6.0,84,0.00,,,0.00,468.00,VWS V14.01,2013-01-06 17:01:00,
2013-01-06 12:06:00,70.8,65.4,30.14,SSW,206,0.0,4.0,83,0.00,,,0.00,552.00,VWS V14.01,2013-01-06 17:06:00,
2013-01-06 12:11:00,70.7,64.9,30.14,SW,234,0.0,4.0,82,0.00,,,0.00,557.00,VWS V14.01,2013-01-06 17:11:00,
2013-01-06 12:16:00,71.4,65.6,30.14,East,101,2.0,4.0,82,0.00,,,0.00,547.00,VWS V14.01,2013-01-06 17:16:00,
2013-01-06 12:21:00,71.7,65.6,30.14,SSW,198,2.0,4.0,81,0.00,,,0.00,536.00,VWS V14.01,2013-01-06 17:21:00,
2013-01-06 12:26:00,72.4,66.6,30.13,SE,138,2.0,4.0,82,0.00,,,0.00,533.00,VWS V14.01,2013-01-06 17:26:00,
2013-01-06 12:30:00,76.6,67.3,30.09,SSE,153,3.0,7.0,73,0.00,,,0.00,580.00,VWS V15.00,2013-01-06 17:30:00,
2013-01-06 12:31:00,73.0,66.5,30.13,ESE,117,2.0,5.0,80,0.00,,,0.00,515.00,VWS V14.01,2013-01-06 17:31:00,
2013-01-06 12:36:00,73.2,65.9,30.12,SE,131,2.0,5.0,78,0.00,,,0.00,513.00,VWS V14.01,2013-01-06 17:36:00,
2013-01-06 12:41:00,73.1,66.2,30.12,South,177,2.0,5.0,79,0.00,,,0.00,510.00,VWS V14.01,2013-01-06 17:41:00,
2013-01-06 12:46:00,73.8,66.5,30.11,SE,141,4.0,5.0,78,0.00,,,0.00,506.00,VWS V14.01,2013-01-06 17:46:00,
2013-01-06 12:51:00,74.1,66.4,30.11,SSE,165,1.0,5.0,77,0.00,,,0.00,497.00,VWS V14.01,2013-01-06 17:51:00,
2013-01-06 12:56:00,74.1,66.4,30.11,East,98,1.0,5.0,77,0.00,,,0.00,487.00,VWS V14.01,2013-01-06 17:56:00,
2013-01-06 13:01:00,74.7,66.6,30.10,SSE,155,5.0,5.0,76,0.00,,,0.00,540.00,VWS V14.01,2013-01-06 18:01:00,
2013-01-06 13:06:00,75.2,66.7,30.10,SSE,157,2.0,5.0,75,0.00,,,0.00,564.00,VWS V14.01,2013-01-06 18:06:00,
2013-01-06 13:11:00,76.0,67.1,30.09,SE,138,4.0,5.0,74,0.00,,,0.00,589.00,VWS V14.01,2013-01-06 18:11:00,
2013-01-06 13:16:00,75.3,67.2,30.09,SE,135,0.0,5.0,76,0.00,,,0.00,631.00,VWS V14.01,2013-01-06 18:16:00,
2013-01-06 13:21:00,76.0,67.1,30.09,SE,134,2.0,5.0,74,0.00,,,0.00,656.00,VWS V14.01,2013-01-06 18:21:00,
2013-01-06 13:26:00,76.5,67.2,30.09,ESE,119,0.0,5.0,73,0.00,,,0.00,640.00,VWS V14.01,2013-01-06 18:26:00,
2013-01-06 13:30:00,77.4,66.0,30.07,WSW,258,5.0,9.0,68,0.00,,,0.00,134.00,VWS V15.00,2013-01-06 18:30:00,
2013-01-06 13:31:00,76.7,67.4,30.08,SSE,155,0.0,3.0,73,0.00,,,0.00,580.00,VWS V14.01,2013-01-06 18:31:00,
2013-01-06 13:36:00,76.5,67.2,30.08,SSW,211,4.0,5.0,73,0.00,,,0.00,309.00,VWS V14.01,2013-01-06 18:36:00,
2013-01-06 13:41:00,76.7,67.0,30.08,SSE,166,0.0,5.0,72,0.00,,,0.00,450.00,VWS V14.01,2013-01-06 18:41:00,
2013-01-06 13:46:00,76.9,66.4,30.08,NW,315,3.0,6.0,70,0.00,,,0.00,295.00,VWS V14.01,2013-01-06 18:46:00,
2013-01-06 13:51:00,77.1,66.2,30.08,WSW,242,3.0,10.0,69,0.00,,,0.00,223.00,VWS V14.01,2013-01-06 18:51:00,
2013-01-06 13:56:00,76.8,65.4,30.07,SW,220,4.0,10.0,68,0.00,,,0.00,348.00,VWS V14.01,2013-01-06 18:56:00,
2013-01-06 14:01:00,78.1,66.3,30.07,WSW,240,6.0,7.0,67,0.00,,BKN080,0.00,550.00,VWS V14.01,2013-01-06 19:01:00,
2013-01-06 14:06:00,78.6,66.3,30.07,West,267,7.0,9.0,66,0.00,,BKN080,0.00,469.00,VWS V14.01,2013-01-06 19:06:00,
2013-01-06 14:11:00,78.3,66.9,30.07,West,259,6.0,9.0,68,0.00,,BKN080,0.00,371.00,VWS V14.01,2013-01-06 19:11:00,
2013-01-06 14:16:00,78.7,66.4,30.07,WSW,238,6.0,9.0,66,0.00,,BKN080,0.00,515.00,VWS V14.01,2013-01-06 19:16:00,
2013-01-06 14:21:00,78.2,66.4,30.07,WNW,286,4.0,9.0,67,0.00,,BKN080,0.00,482.00,VWS V14.01,2013-01-06 19:21:00,
2013-01-06 14:26:00,77.8,65.5,30.07,SW,222,3.0,9.0,66,0.00,,BKN080,0.00,200.00,VWS V14.01,2013-01-06 19:26:00,
2013-01-06 14:30:00,71.7,67.3,30.07,WNW,294,2.0,13.0,86,0.00,,,0.00,44.00,VWS V15.00,2013-01-06 19:30:00,
2013-01-06 14:31:00,77.4,66.0,30.07,West,270,2.0,5.0,68,0.00,,BKN080,0.00,134.00,VWS V14.01,2013-01-06 19:31:00,
2013-01-06 14:36:00,77.0,65.6,30.07,WSW,248,1.0,6.0,68,0.00,,BKN080,0.00,142.00,VWS V14.01,2013-01-06 19:36:00,
2013-01-06 14:46:00,77.1,65.7,30.07,West,261,7.0,7.0,68,0.00,,BKN080,0.00,230.00,VWS V14.01,2013-01-06 19:46:00,
2013-01-06 14:52:00,77.1,65.7,30.07,WSW,238,2.0,7.0,68,0.00,,BKN080,0.00,149.00,VWS V14.01,2013-01-06 19:52:00,
2013-01-06 14:57:00,77.2,65.8,30.07,WSW,244,5.0,7.0,68,0.00,,BKN080,0.00,139.00,VWS V14.01,2013-01-06 19:57:00,
2013-01-06 15:00:00,72.5,67.7,30.07,WNW,298,1.0,6.0,85,0.00,,,0.00,107.00,VWS V15.00,2013-01-06 20:00:00,
2013-01-06 15:03:00,76.9,66.0,30.06,WNW,301,5.0,6.0,69,0.00,,BKN090,0.00,95.00,VWS V14.01,2013-01-06 20:03:00,
2013-01-06 15:10:00,76.0,67.1,30.07,West,281,7.0,13.0,74,0.00,,BKN090,0.00,74.00,VWS V14.01,2013-01-06 20:10:00,
2013-01-06 15:11:00,75.5,66.6,30.07,NW,306,5.0,13.0,74,0.00,,BKN090,0.00,69.00,VWS V14.01,2013-01-06 20:11:00,
2013-01-06 15:13:00,75.0,66.9,30.07,WNW,294,6.0,13.0,76,0.00,,BKN090,0.00,63.00,VWS V14.01,2013-01-06 20:13:00,
2013-01-06 15:18:00,73.7,67.2,30.07,West,276,10.0,13.0,80,0.00,,BKN090,0.00,42.00,VWS V14.01,2013-01-06 20:18:00,
2013-01-06 15:23:00,72.6,67.2,30.07,WNW,286,4.0,13.0,83,0.00,,BKN090,0.00,35.00,VWS V14.01,2013-01-06 20:23:00,
2013-01-06 15:28:00,71.8,67.4,30.07,WNW,287,6.0,13.0,86,0.00,,BKN090,0.00,44.00,VWS V14.01,2013-01-06 20:28:00,
2013-01-06 15:30:00,73.5,67.7,30.07,WNW,282,1.0,4.0,82,0.00,,,0.00,35.00,VWS V15.00,2013-01-06 20:30:00,
2013-01-06 15:33:00,71.6,67.5,30.07,WNW,295,4.0,6.0,87,0.00,,BKN090,0.00,51.00,VWS V14.01,2013-01-06 20:33:00,
2013-01-06 15:38:00,71.5,67.4,30.07,WNW,282,3.0,6.0,87,0.00,,BKN090,0.00,51.00,VWS V14.01,2013-01-06 20:38:00,
2013-01-06 15:43:00,71.5,67.4,30.07,West,281,4.0,6.0,87,0.00,,BKN090,0.00,62.00,VWS V14.01,2013-01-06 20:43:00,
2013-01-06 15:48:00,71.8,67.7,30.07,WNW,292,0.0,6.0,87,0.00,,BKN090,0.00,93.00,VWS V14.01,2013-01-06 20:48:00,
2013-01-06 15:54:00,72.1,67.7,30.06,WNW,298,0.0,6.0,86,0.00,,BKN090,0.00,107.00,VWS V14.01,2013-01-06 20:54:00,
2013-01-06 15:59:00,72.4,67.6,30.07,WNW,298,0.0,6.0,85,0.00,,BKN090,0.00,107.00,VWS V14.01,2013-01-06 20:59:00,
2013-01-06 16:00:00,73.0,67.5,30.08,WNW,298,1.0,4.0,83,0.00,,,0.00,23.00,VWS V15.00,2013-01-06 21:00:00,
2013-01-06 16:01:00,72.6,67.8,30.07,WNW,298,1.0,2.0,85,0.00,,BKN090,0.00,109.00,VWS V14.01,2013-01-06 21:01:00,
2013-01-06 16:06:00,72.8,67.3,30.07,WNW,298,2.0,2.0,83,0.00,,BKN090,0.00,109.00,VWS V14.01,2013-01-06 21:06:00,
2013-01-06 16:11:00,73.2,67.4,30.07,WNW,298,2.0,3.0,82,0.00,,BKN060,0.00,98.00,VWS V14.01,2013-01-06 21:11:00,
2013-01-06 16:16:00,73.4,67.6,30.07,WNW,297,1.0,4.0,82,0.00,,BKN060,0.00,90.00,VWS V14.01,2013-01-06 21:16:00,
2013-01-06 16:21:00,73.5,67.3,30.07,WNW,302,3.0,4.0,81,0.00,,BKN060,0.00,72.00,VWS V14.01,2013-01-06 21:21:00,
2013-01-06 16:26:00,73.5,67.3,30.07,WNW,296,3.0,4.0,81,0.00,,BKN060,0.00,51.00,VWS V14.01,2013-01-06 21:26:00,
2013-01-06 16:31:00,73.4,67.6,30.07,WNW,284,3.0,3.0,82,0.00,,BKN060,0.00,32.00,VWS V14.01,2013-01-06 21:31:00,
2013-01-06 16:36:00,73.3,67.5,30.08,WNW,298,3.0,4.0,82,0.00,,BKN060,0.00,25.00,VWS V14.01,2013-01-06 21:36:00,
2013-01-06 16:41:00,73.3,67.5,30.08,WNW,286,2.0,4.0,82,0.00,,BKN060,0.00,23.00,VWS V14.01,2013-01-06 21:41:00,
2013-01-06 16:46:00,73.2,67.4,30.08,WNW,298,2.0,4.0,82,0.00,,BKN060,0.00,32.00,VWS V14.01,2013-01-06 21:46:00,
2013-01-06 16:51:00,73.1,67.6,30.08,WNW,282,2.0,4.0,83,0.00,,BKN060,0.00,32.00,VWS V14.01,2013-01-06 21:51:00,
2013-01-06 16:56:00,73.1,67.6,30.08,WNW,298,2.0,4.0,83,0.00,,BKN060,0.00,30.00,VWS V14.01,2013-01-06 21:56:00,
2013-01-06 17:01:00,73.0,67.5,30.08,WNW,298,1.0,2.0,83,0.00,,BKN060,0.00,21.00,VWS V14.01,2013-01-06 22:01:00,
2013-01-06 17:07:00,72.8,67.7,30.08,West,280,1.0,2.0,84,0.00,,BKN040,0.00,18.00,VWS V14.01,2013-01-06 22:07:00,
2013-01-06 17:12:00,72.6,67.5,30.08,West,279,2.0,3.0,84,0.00,,BKN040,0.00,19.00,VWS V14.01,2013-01-06 22:12:00,
2013-01-06 17:17:00,72.6,67.5,30.08,WNW,288,2.0,3.0,84,0.00,,BKN040,0.00,18.00,VWS V14.01,2013-01-06 22:17:00,
2013-01-06 17:22:00,72.5,67.4,30.08,WNW,298,2.0,4.0,84,0.00,,BKN040,0.00,16.00,VWS V14.01,2013-01-06 22:22:00,
2013-01-06 17:26:00,72.3,67.5,30.08,West,272,2.0,4.0,85,0.00,,BKN040,0.00,12.00,VWS V14.01,2013-01-06 22:26:00,
2013-01-06 17:30:00,70.8,65.7,30.09,NNW,335,2.0,6.0,84,0.00,,,0.00,0.00,VWS V15.00,2013-01-06 22:30:00,
2013-01-06 17:31:00,72.2,67.4,30.09,West,277,4.0,5.0,85,0.00,,BKN040,0.00,5.00,VWS V14.01,2013-01-06 22:31:00,
2013-01-06 17:37:00,72.0,66.6,30.09,NW,306,5.0,6.0,83,0.00,,BKN040,0.00,0.00,VWS V14.01,2013-01-06 22:37:00,
2013-01-06 17:42:00,72.0,66.6,30.09,West,272,4.0,8.0,83,0.00,,BKN040,0.00,0.00,VWS V14.01,2013-01-06 22:42:00,
2013-01-06 17:47:00,71.9,66.1,30.09,West,280,2.0,8.0,82,0.00,,BKN040,0.00,0.00,VWS V14.01,2013-01-06 22:47:00,
2013-01-06 17:52:00,71.8,66.4,30.09,West,281,5.0,9.0,83,0.00,,BKN040,0.00,0.00,VWS V14.01,2013-01-06 22:52:00,
2013-01-06 17:57:00,71.7,66.3,30.09,WNW,284,7.0,9.0,83,0.00,,BKN040,0.00,0.00,VWS V14.01,2013-01-06 22:57:00,
2013-01-06 18:00:00,69.2,63.8,30.11,NW,326,4.0,9.0,83,0.00,,,0.00,0.00,VWS V15.00,2013-01-06 23:00:00,
2013-01-06 18:02:00,71.7,66.6,30.09,WNW,290,4.0,4.0,84,0.00,,OVC040,0.00,0.00,VWS V14.01,2013-01-06 23:02:00,
2013-01-06 18:07:00,71.5,66.4,30.09,NW,317,1.0,5.0,84,0.00,,OVC040,0.00,0.00,VWS V14.01,2013-01-06 23:07:00,
2013-01-06 18:12:00,71.4,66.3,30.10,WNW,301,2.0,5.0,84,0.00,,OVC040,0.00,0.00,VWS V14.01,2013-01-06 23:12:00,
2013-01-06 18:17:00,71.2,66.1,30.10,NW,315,4.0,5.0,84,0.00,,OVC040,0.00,0.00,VWS V14.01,2013-01-06 23:17:00,
2013-01-06 18:22:00,71.1,66.0,30.09,North,355,5.0,5.0,84,0.00,,OVC040,0.00,0.00,VWS V14.01,2013-01-06 23:22:00,
2013-01-06 18:27:00,71.0,65.9,30.09,NNW,337,2.0,5.0,84,0.00,,OVC040,0.00,0.00,VWS V14.01,2013-01-06 23:27:00,
2013-01-06 18:32:00,70.8,65.7,30.10,NW,319,4.0,5.0,84,0.00,,OVC040,0.00,0.00,VWS V14.01,2013-01-06 23:32:00,
2013-01-06 18:37:00,70.7,65.6,30.10,North,355,3.0,5.0,84,0.00,,OVC040,0.00,0.00,VWS V14.01,2013-01-06 23:37:00,
2013-01-06 18:42:00,70.4,65.0,30.10,North,350,4.0,8.0,83,0.00,,OVC040,0.00,0.00,VWS V14.01,2013-01-06 23:42:00,
2013-01-06 18:47:00,70.1,64.7,30.10,North,355,7.0,9.0,83,0.00,,OVC040,0.00,0.00,VWS V14.01,2013-01-06 23:47:00,
2013-01-06 18:52:00,69.7,64.3,30.10,NNW,348,4.0,9.0,83,0.00,,OVC040,0.00,0.00,VWS V14.01,2013-01-06 23:52:00,
2013-01-06 18:57:00,69.4,64.0,30.10,North,355,6.0,9.0,83,0.00,,OVC040,0.00,0.00,VWS V14.01,2013-01-06 23:57:00,
2013-01-06 19:02:00,69.1,63.7,30.11,NNW,334,4.0,7.0,83,0.00,,OVC017,0.00,0.00,VWS V14.01,2013-01-07 00:02:00,
2013-01-06 19:07:00,69.0,63.6,30.11,NNW,327,3.0,7.0,83,0.00,,OVC017,0.00,0.00,VWS V14.01,2013-01-07 00:07:00,
2013-01-06 19:12:00,68.8,63.4,30.11,North,351,4.0,8.0,83,0.00,,OVC017,0.00,0.00,VWS V14.01,2013-01-07 00:12:00,
2013-01-06 19:17:00,68.7,63.7,30.11,North,355,2.0,9.0,84,0.00,,OVC017,0.00,0.00,VWS V14.01,2013-01-07 00:17:00,
2013-01-06 19:22:00,68.6,63.6,30.11,NNW,335,6.0,9.0,84,0.00,,OVC017,0.00,0.00,VWS V14.01,2013-01-07 00:22:00,
2013-01-06 19:27:00,68.4,63.4,30.11,North,355,7.0,9.0,84,0.00,,OVC017,0.00,0.00,VWS V14.01,2013-01-07 00:27:00,
2013-01-06 19:30:00,64.0,60.7,30.11,North,350,6.0,10.0,89,0.00,,,0.00,0.00,VWS V15.00,2013-01-07 00:30:00,
2013-01-06 19:32:00,68.3,63.3,30.11,North,355,7.0,9.0,84,0.00,,OVC017,0.00,0.00,VWS V14.01,2013-01-07 00:32:00,
2013-01-06 19:37:00,68.2,63.2,30.11,NNW,327,6.0,10.0,84,0.00,,OVC017,0.00,0.00,VWS V14.01,2013-01-07 00:37:00,
2013-01-06 19:42:00,68.1,63.4,30.11,North,360,3.0,10.0,85,0.00,,OVC017,0.00,0.00,VWS V14.01,2013-01-07 00:42:00,
2013-01-06 19:47:00,67.6,62.9,30.11,NNW,332,10.0,10.0,85,0.00,,OVC017,0.00,0.00,VWS V14.01,2013-01-07 00:47:00,
2013-01-06 19:52:00,66.8,61.8,30.12,NNW,329,6.0,12.0,84,0.00,,OVC017,0.00,0.00,VWS V14.01,2013-01-07 00:52:00,
2013-01-06 19:57:00,65.9,60.9,30.11,North,355,5.0,12.0,84,0.00,,OVC017,0.00,0.00,VWS V14.01,2013-01-07 00:57:00,
2013-01-06 20:00:00,62.2,59.2,30.13,North,355,6.0,11.0,90,0.00,,,0.00,0.00,VWS V15.00,2013-01-07 01:00:00,
2013-01-06 20:02:00,65.2,60.6,30.10,NNE,30,4.0,7.0,85,0.00,,OVC013,0.00,0.00,VWS V14.01,2013-01-07 01:02:00,
2013-01-06 20:07:00,64.8,60.5,30.11,North,355,4.0,10.0,86,0.00,,OVC013,0.00,0.00,VWS V14.01,2013-01-07 01:07:00,
2013-01-06 20:12:00,64.6,60.3,30.11,NNE,20,4.0,10.0,86,0.00,,OVC013,0.00,0.00,VWS V14.01,2013-01-07 01:12:00,
2013-01-06 20:17:00,64.4,60.5,30.11,NNW,346,6.0,10.0,87,0.00,,OVC013,0.00,0.00,VWS V14.01,2013-01-07 01:17:00,
2013-01-06 20:22:00,64.3,60.7,30.11,North,5,2.0,10.0,88,0.00,,OVC013,0.00,0.00,VWS V14.01,2013-01-07 01:22:00,
2013-01-06 20:27:00,64.1,60.5,30.11,NNE,12,2.0,10.0,88,0.00,,OVC013,0.00,0.00,VWS V14.01,2013-01-07 01:27:00,
2013-01-06 20:30:00,61.1,58.8,30.15,North,349,5.0,11.0,92,0.00,,,0.00,0.00,VWS V15.00,2013-01-07 01:30:00,
2013-01-06 20:32:00,64.0,60.7,30.12,North,5,4.0,7.0,89,0.00,,OVC013,0.00,0.00,VWS V14.01,2013-01-07 01:32:00,
2013-01-06 20:37:00,63.8,60.5,30.12,NW,325,4.0,7.0,89,0.00,,OVC013,0.00,0.00,VWS V14.01,2013-01-07 01:37:00,
2013-01-06 20:42:00,63.5,60.2,30.12,North,355,5.0,8.0,89,0.00,,OVC013,0.00,0.00,VWS V14.01,2013-01-07 01:42:00,
2013-01-06 20:47:00,63.2,59.9,30.13,North,10,5.0,9.0,89,0.00,,OVC013,0.00,0.00,VWS V14.01,2013-01-07 01:47:00,
2013-01-06 20:52:00,62.8,59.8,30.12,NNW,339,7.0,9.0,90,0.00,,OVC013,0.00,0.00,VWS V14.01,2013-01-07 01:52:00,
2013-01-06 20:57:00,62.4,59.4,30.13,NW,321,5.0,10.0,90,0.00,,OVC013,0.00,0.00,VWS V14.01,2013-01-07 01:57:00,
2013-01-06 21:02:00,62.1,59.1,30.13,NNW,347,4.0,9.0,90,0.00,,OVC013,0.00,0.00,VWS V14.01,2013-01-07 02:02:00,
2013-01-06 21:07:00,61.8,58.8,30.14,North,349,2.0,9.0,90,0.00,,OVC013,0.00,0.00,VWS V14.01,2013-01-07 02:07:00,
2013-01-06 21:12:00,61.6,59.0,30.14,NNW,328,5.0,11.0,91,0.00,,OVC013,0.00,0.00,VWS V14.01,2013-01-07 02:12:00,
2013-01-06 21:17:00,61.4,58.8,30.14,NNW,340,6.0,11.0,91,0.00,,OVC013,0.00,0.00,VWS V14.01,2013-01-07 02:17:00,
2013-01-06 21:22:00,61.2,58.6,30.14,NNW,340,4.0,11.0,91,0.00,,OVC013,0.00,0.00,VWS V14.01,2013-01-07 02:22:00,
2013-01-06 21:27:00,61.1,58.5,30.14,North,360,3.0,11.0,91,0.00,,OVC013,0.00,0.00,VWS V14.01,2013-01-07 02:27:00,
2013-01-06 21:30:00,60.4,58.1,30.17,NNE,24,6.0,9.0,92,0.00,,,0.00,0.00,VWS V15.00,2013-01-07 02:30:00,
2013-01-06 21:32:00,61.1,58.8,30.15,North,5,5.0,7.0,92,0.00,,OVC013,0.00,0.00,VWS V14.01,2013-01-07 02:32:00,
2013-01-06 21:38:00,61.1,58.8,30.15,North,355,6.0,7.0,92,0.00,,OVC011,0.00,0.00,VWS V14.01,2013-01-07 02:38:00,
2013-01-06 21:43:00,61.0,58.7,30.16,North,355,5.0,12.0,92,0.00,,OVC011,0.00,0.00,VWS V14.01,2013-01-07 02:43:00,
2013-01-06 21:48:00,60.8,58.5,30.16,NNE,33,3.0,12.0,92,0.00,,OVC011,0.00,0.00,VWS V14.01,2013-01-07 02:48:00,
2013-01-06 21:53:00,60.7,58.4,30.16,NNW,348,5.0,12.0,92,0.00,,OVC011,0.00,0.00,VWS V14.01,2013-01-07 02:53:00,
2013-01-06 21:58:00,60.5,58.2,30.16,NNE,17,3.0,12.0,92,0.00,,OVC011,0.00,0.00,VWS V14.01,2013-01-07 02:58:00,
2013-01-06 22:00:00,60.0,58.0,30.18,NNW,337,9.0,13.0,93,0.00,,,0.00,0.00,VWS V15.00,2013-01-07 03:00:00,
2013-01-06 22:03:00,60.4,58.4,30.16,NE,38,5.0,6.0,93,0.00,,OVC009,0.00,0.00,VWS V14.01,2013-01-07 03:03:00,
2013-01-06 22:08:00,60.4,58.4,30.16,NNE,19,6.0,7.0,93,0.00,,OVC009,0.00,0.00,VWS V14.01,2013-01-07 03:08:00,
2013-01-06 22:13:00,60.4,58.4,30.16,NNE,12,5.0,7.0,93,0.00,,OVC009,0.00,0.00,VWS V14.01,2013-01-07 03:13:00,
2013-01-06 22:18:00,60.4,58.4,30.17,NNW,343,7.0,9.0,93,0.00,,OVC007,0.00,0.00,VWS V14.01,2013-01-07 03:18:00,
2013-01-06 22:23:00,60.5,58.5,30.17,North,355,7.0,9.0,93,0.00,,OVC007,0.00,0.00,VWS V14.01,2013-01-07 03:23:00,
2013-01-06 22:28:00,60.5,58.5,30.17,North,355,4.0,9.0,93,0.00,,OVC007,0.00,0.00,VWS V14.01,2013-01-07 03:28:00,
2013-01-06 22:30:00,59.4,57.4,30.16,North,350,3.0,11.0,93,0.00,,,0.00,0.00,VWS V15.00,2013-01-07 03:30:00,
2013-01-06 22:33:00,60.4,58.1,30.17,North,5,6.0,13.0,92,0.00,,OVC007,0.00,0.00,VWS V14.01,2013-01-07 03:33:00,
2013-01-06 22:38:00,60.3,58.0,30.17,NNE,16,4.0,13.0,92,0.00,,OVC005,0.00,0.00,VWS V14.01,2013-01-07 03:38:00,
2013-01-06 22:43:00,60.2,57.9,30.17,NNE,15,6.0,13.0,92,0.00,,OVC005,0.00,0.00,VWS V14.01,2013-01-07 03:43:00,
2013-01-06 22:48:00,60.2,57.9,30.17,NNE,30,6.0,13.0,92,0.00,,OVC005,0.00,0.00,VWS V14.01,2013-01-07 03:48:00,
2013-01-06 22:53:00,60.2,57.9,30.18,NNW,342,6.0,13.0,92,0.00,,OVC005,0.00,0.00,VWS V14.01,2013-01-07 03:53:00,
2013-01-06 22:58:00,60.1,58.1,30.18,NNW,339,7.0,13.0,93,0.00,,OVC005,0.00,0.00,VWS V14.01,2013-01-07 03:58:00,
2013-01-06 23:03:00,60.0,58.0,30.17,NNW,333,8.0,10.0,93,0.00,,OVC025,0.00,0.00,VWS V14.01,2013-01-07 04:03:00,
2013-01-06 23:08:00,59.8,57.8,30.17,North,360,8.0,10.0,93,0.00,,OVC025,0.00,0.00,VWS V14.01,2013-01-07 04:08:00,
2013-01-06 23:13:00,59.7,57.7,30.16,NNE,16,6.0,10.0,93,0.00,,OVC025,0.00,0.00,VWS V14.01,2013-01-07 04:13:00,
2013-01-06 23:18:00,59.6,57.6,30.16,North,10,9.0,11.0,93,0.00,,OVC006,0.00,0.00,VWS V14.01,2013-01-07 04:18:00,
2013-01-06 23:23:00,59.5,57.5,30.16,North,5,7.0,11.0,93,0.00,,OVC006,0.00,0.00,VWS V14.01,2013-01-07 04:23:00,
2013-01-06 23:28:00,59.4,57.4,30.16,NNE,24,8.0,11.0,93,0.00,,OVC006,0.00,0.00,VWS V14.01,2013-01-07 04:28:00,
2013-01-06 23:33:00,59.3,57.3,30.16,NE,53,4.0,6.0,93,0.00,,OVC006,0.00,0.00,VWS V14.01,2013-01-07 04:33:00,
2013-01-06 23:38:00,59.3,57.3,30.16,NNE,22,5.0,7.0,93,0.00,,BKN006,0.00,0.00,VWS V14.01,2013-01-07 04:38:00,
2013-01-06 23:43:00,59.3,57.6,30.16,NNE,31,7.0,8.0,94,0.00,,BKN006,0.00,0.00,VWS V14.01,2013-01-07 04:43:00,